Time;durP1;ratioP1;P1;durP2;ratioP2;P2;SDS_P1;SDS_P2;PMS_P1;PMS_P2;Temp;Humidity;BMP_temperature;BMP_pressure;BME280_temperature;BME280_humidity;BME280_pressure;Samples;Min_cycle;Max_cycle;Signal;HPM_P1;HPM_P2
2022/07/12 00:02:30;;;;;;;;;;;17.40;99.90;;;;;;5014308;28;19916;-49
2022/07/12 00:05:14;;;;;;;;;;;17.50;99.90;;;;;;5013587;28;19972;-51
2022/07/12 00:07:58;;;;;;;;;;;17.40;99.90;;;;;;5017660;28;19919;-50
2022/07/12 00:10:42;;;;;;;;;;;17.40;99.90;;;;;;5034063;28;19919;-49
2022/07/12 00:13:27;;;;;;;;;;;17.40;99.90;;;;;;5034618;28;20027;-50
2022/07/12 00:16:11;;;;;;;;;;;17.30;99.90;;;;;;5033210;28;20006;-48
2022/07/12 00:18:55;;;;;;;;;;;17.30;99.90;;;;;;5034536;28;20042;-49
2022/07/12 00:21:39;;;;;;;;;;;17.20;99.90;;;;;;5019599;28;19971;-55
2022/07/12 00:24:24;;;;;;;;;;;17.40;99.90;;;;;;5033559;28;19963;-48
2022/07/12 00:27:08;;;;;;;;;;;17.30;99.90;;;;;;5033539;28;19940;-47
2022/07/12 00:29:52;;;;;;;;;;;17.30;99.90;;;;;;5033519;28;19971;-50
2022/07/12 00:32:37;;;;;;;;;;;17.20;99.90;;;;;;5033215;28;19943;-49
2022/07/12 00:35:21;;;;;;;;;;;17.30;99.90;;;;;;5033125;28;19955;-53
2022/07/12 00:38:05;;;;;;;;;;;17.20;99.90;;;;;;5033991;28;19979;-53
2022/07/12 00:40:49;;;;;;;;;;;17.10;99.90;;;;;;5034253;28;19959;-50
2022/07/12 00:43:34;;;;;;;;;;;17.10;99.90;;;;;;5031469;28;19920;-49
2022/07/12 00:46:21;;;;;;;;;;;17.10;99.90;;;;;;5033220;28;19967;-51
2022/07/12 00:49:06;;;;;;;;;;;17.10;99.90;;;;;;5033047;28;19980;-49
2022/07/12 00:51:50;;;;;;;;;;;17.00;99.90;;;;;;5032292;28;19959;-47
2022/07/12 00:54:35;;;;;;;;;;;16.90;99.90;;;;;;5033302;28;19975;-51
2022/07/12 00:57:19;;;;;;;;;;;16.80;99.90;;;;;;5030152;28;20034;-52
2022/07/12 01:00:05;;;;;;;;;;;16.80;99.90;;;;;;5022654;28;19956;-50
2022/07/12 01:02:49;;;;;;;;;;;16.80;99.90;;;;;;5026388;28;19944;-50
2022/07/12 01:05:34;;;;;;;;;;;17.00;99.90;;;;;;5026705;28;19970;-51
2022/07/12 01:08:18;;;;;;;;;;;17.00;99.90;;;;;;5026274;28;19911;-47
2022/07/12 01:11:02;;;;;;;;;;;16.90;99.90;;;;;;5030547;28;20358;-54
2022/07/12 01:13:47;;;;;;;;;;;16.80;99.90;;;;;;5027698;28;19915;-54
2022/07/12 01:16:32;;;;;;;;;;;17.00;99.90;;;;;;5031698;28;19912;-52
2022/07/12 01:19:20;;;;;;;;;;;16.70;99.90;;;;;;5032146;28;19919;-49
2022/07/12 01:22:07;;;;;;;;;;;16.70;99.90;;;;;;5031911;28;19920;-49
2022/07/12 01:24:51;;;;;;;;;;;16.90;99.90;;;;;;5013390;28;20388;-55
2022/07/12 01:27:37;;;;;;;;;;;16.80;99.90;;;;;;5028158;28;19935;-53
2022/07/12 01:30:21;;;;;;;;;;;16.90;99.90;;;;;;5032875;28;20331;-53
2022/07/12 01:33:05;;;;;;;;;;;16.90;99.90;;;;;;5032366;28;20373;-48
2022/07/12 01:35:49;;;;;;;;;;;16.80;99.90;;;;;;5032499;28;19967;-51
2022/07/12 01:38:33;;;;;;;;;;;16.90;99.90;;;;;;5012429;28;19924;-58
2022/07/12 01:41:18;;;;;;;;;;;16.90;99.90;;;;;;5015833;28;19932;-54
2022/07/12 01:44:02;;;;;;;;;;;16.80;99.90;;;;;;5032736;28;19935;-58
2022/07/12 01:46:46;;;;;;;;;;;16.80;99.90;;;;;;5031597;28;20403;-57
2022/07/12 01:49:30;;;;;;;;;;;16.90;99.90;;;;;;5031996;28;19916;-48
2022/07/12 01:52:15;;;;;;;;;;;16.90;99.90;;;;;;5031692;28;19920;-50
2022/07/12 01:54:59;;;;;;;;;;;16.70;99.90;;;;;;5017742;28;19920;-52
2022/07/12 01:57:44;;;;;;;;;;;16.80;99.90;;;;;;5032791;28;19919;-51
2022/07/12 02:00:29;;;;;;;;;;;16.60;99.90;;;;;;5018290;28;19989;-55
2022/07/12 02:03:13;;;;;;;;;;;16.50;99.90;;;;;;5032820;28;20012;-51
2022/07/12 02:05:57;;;;;;;;;;;16.50;99.90;;;;;;5017851;28;19917;-52
2022/07/12 02:08:42;;;;;;;;;;;16.50;99.90;;;;;;5032687;28;19920;-55
2022/07/12 02:11:27;;;;;;;;;;;16.60;99.90;;;;;;5032942;28;19920;-55
2022/07/12 02:14:14;;;;;;;;;;;16.40;99.90;;;;;;5025401;28;19970;-52
2022/07/12 02:16:58;;;;;;;;;;;16.30;99.90;;;;;;5030527;28;20020;-52
2022/07/12 02:19:43;;;;;;;;;;;16.30;99.90;;;;;;5031155;28;20625;-50
2022/07/12 02:22:27;;;;;;;;;;;16.50;99.90;;;;;;5033224;28;19916;-56
2022/07/12 02:25:12;;;;;;;;;;;16.50;99.90;;;;;;5034030;28;20422;-56
2022/07/12 02:27:56;;;;;;;;;;;16.50;99.90;;;;;;5021296;28;19940;-53
2022/07/12 02:30:40;;;;;;;;;;;16.40;99.90;;;;;;5036424;28;19956;-55
2022/07/12 02:33:25;;;;;;;;;;;16.30;99.90;;;;;;5035946;28;19916;-52
2022/07/12 02:36:10;;;;;;;;;;;16.30;99.90;;;;;;5035604;28;20289;-53
2022/07/12 02:38:54;;;;;;;;;;;16.30;99.90;;;;;;5036009;28;19982;-52
2022/07/12 02:41:38;;;;;;;;;;;16.40;99.90;;;;;;5035531;28;19931;-54
2022/07/12 02:44:22;;;;;;;;;;;16.30;99.90;;;;;;5049885;28;20335;-53
2022/07/12 02:47:07;;;;;;;;;;;16.40;99.90;;;;;;5047215;28;19920;-52
2022/07/12 02:49:51;;;;;;;;;;;16.20;99.90;;;;;;5035911;28;20220;-49
2022/07/12 02:52:35;;;;;;;;;;;16.20;99.90;;;;;;5028441;28;20004;-53
2022/07/12 02:55:19;;;;;;;;;;;16.30;99.90;;;;;;5040344;28;20028;-53
2022/07/12 02:58:05;;;;;;;;;;;16.20;99.90;;;;;;5041431;28;19996;-56
2022/07/12 03:00:49;;;;;;;;;;;16.30;99.90;;;;;;5036003;28;19912;-51
2022/07/12 03:03:34;;;;;;;;;;;16.20;99.90;;;;;;5035552;28;19968;-51
2022/07/12 03:06:18;;;;;;;;;;;16.30;99.90;;;;;;5035209;28;19947;-50
2022/07/12 03:09:02;;;;;;;;;;;16.20;99.90;;;;;;5015285;28;20360;-54
2022/07/12 03:11:46;;;;;;;;;;;16.20;99.90;;;;;;5023881;28;20021;-51
2022/07/12 03:14:31;;;;;;;;;;;16.30;99.90;;;;;;5016676;28;19964;-51
2022/07/12 03:17:15;;;;;;;;;;;16.30;99.90;;;;;;5019366;28;19941;-54
2022/07/12 03:20:00;;;;;;;;;;;16.30;99.90;;;;;;5035462;28;19916;-51
2022/07/12 03:22:46;;;;;;;;;;;16.30;99.90;;;;;;5034797;28;19916;-49
2022/07/12 03:25:30;;;;;;;;;;;16.20;99.90;;;;;;5034079;28;19954;-50
2022/07/12 03:28:14;;;;;;;;;;;16.30;99.90;;;;;;5034515;28;20403;-51
2022/07/12 03:30:59;;;;;;;;;;;16.20;99.90;;;;;;5034505;28;19920;-53
2022/07/12 03:33:43;;;;;;;;;;;16.20;99.90;;;;;;5034865;28;19940;-51
2022/07/12 03:36:27;;;;;;;;;;;16.10;99.90;;;;;;5033141;28;19920;-51
2022/07/12 03:39:11;;;;;;;;;;;16.10;99.90;;;;;;5034217;28;19992;-51
2022/07/12 03:41:55;;;;;;;;;;;16.20;99.90;;;;;;5014645;28;19917;-51
2022/07/12 03:44:40;;;;;;;;;;;16.20;99.90;;;;;;5018951;28;19920;-52
2022/07/12 03:47:24;;;;;;;;;;;16.20;99.90;;;;;;5030534;28;19963;-53
2022/07/12 03:50:12;;;;;;;;;;;16.20;99.90;;;;;;5029480;28;19967;-56
2022/07/12 03:52:56;;;;;;;;;;;16.20;99.90;;;;;;5035171;28;19915;-53
2022/07/12 03:55:41;;;;;;;;;;;16.20;99.90;;;;;;5034634;28;19923;-53
2022/07/12 03:58:25;;;;;;;;;;;16.20;99.90;;;;;;5019700;28;19958;-49
2022/07/12 04:01:09;;;;;;;;;;;16.20;99.90;;;;;;5019895;28;19975;-52
2022/07/12 04:03:54;;;;;;;;;;;16.20;99.90;;;;;;5026208;28;20316;-53
2022/07/12 04:06:38;;;;;;;;;;;16.20;99.90;;;;;;5027167;28;19986;-55
2022/07/12 04:09:23;;;;;;;;;;;16.30;99.90;;;;;;5034079;28;19924;-53
2022/07/12 04:12:07;;;;;;;;;;;16.30;99.90;;;;;;5033942;28;20348;-57
2022/07/12 04:14:51;;;;;;;;;;;16.20;99.90;;;;;;5033941;28;19967;-53
2022/07/12 04:17:35;;;;;;;;;;;16.10;99.90;;;;;;5014603;28;19960;-53
2022/07/12 04:20:20;;;;;;;;;;;16.10;99.90;;;;;;5017435;28;19920;-53
2022/07/12 04:23:04;;;;;;;;;;;16.10;99.90;;;;;;5033900;28;19917;-54
2022/07/12 04:25:48;;;;;;;;;;;16.20;99.90;;;;;;5032700;28;20006;-57
2022/07/12 04:28:34;;;;;;;;;;;16.30;99.90;;;;;;5026263;28;19958;-53
2022/07/12 04:31:18;;;;;;;;;;;16.30;99.90;;;;;;5018551;28;19916;-53
2022/07/12 04:34:02;;;;;;;;;;;16.30;99.90;;;;;;5034285;28;20395;-53
2022/07/12 04:36:47;;;;;;;;;;;16.20;99.90;;;;;;5018747;28;19919;-50
2022/07/12 04:39:31;;;;;;;;;;;16.30;99.90;;;;;;5034057;28;19919;-53
2022/07/12 04:42:15;;;;;;;;;;;16.20;99.90;;;;;;5033510;28;20430;-50
2022/07/12 04:45:00;;;;;;;;;;;16.20;99.90;;;;;;5034034;28;19923;-52
2022/07/12 04:47:44;;;;;;;;;;;16.30;99.90;;;;;;5014441;28;19920;-51
2022/07/12 04:50:28;;;;;;;;;;;16.20;99.90;;;;;;5028778;28;19920;-53
2022/07/12 04:53:12;;;;;;;;;;;16.40;99.90;;;;;;5034025;28;19920;-49
2022/07/12 04:55:57;;;;;;;;;;;16.40;99.90;;;;;;5036047;28;19915;-55
2022/07/12 04:58:41;;;;;;;;;;;16.40;99.90;;;;;;5036144;28;20321;-54
2022/07/12 05:01:26;;;;;;;;;;;16.50;99.90;;;;;;5017537;28;19923;-52
2022/07/12 05:04:10;;;;;;;;;;;16.50;99.90;;;;;;5024084;28;19928;-54
2022/07/12 05:06:54;;;;;;;;;;;16.60;99.90;;;;;;5028999;28;19919;-49
2022/07/12 05:09:38;;;;;;;;;;;16.70;99.90;;;;;;5019630;28;19916;-50
2022/07/12 05:12:23;;;;;;;;;;;16.80;99.90;;;;;;5033434;28;19958;-51
2022/07/12 05:15:07;;;;;;;;;;;16.80;99.90;;;;;;5028683;28;19937;-51
2022/07/12 05:17:51;;;;;;;;;;;16.80;99.90;;;;;;5029123;28;20529;-56
2022/07/12 05:20:35;;;;;;;;;;;16.80;99.90;;;;;;5017386;28;19919;-56
2022/07/12 05:23:20;;;;;;;;;;;16.90;99.90;;;;;;5015372;28;19959;-54
2022/07/12 05:26:04;;;;;;;;;;;16.90;99.90;;;;;;5028236;28;19919;-53
2022/07/12 05:28:48;;;;;;;;;;;16.90;99.90;;;;;;5030290;28;20012;-59
2022/07/12 05:31:32;;;;;;;;;;;17.00;99.90;;;;;;5027212;28;19924;-54
2022/07/12 05:34:17;;;;;;;;;;;16.80;99.90;;;;;;5027163;28;20444;-55
2022/07/12 05:37:01;;;;;;;;;;;16.90;99.90;;;;;;5014959;28;20020;-56
2022/07/12 05:39:45;;;;;;;;;;;16.80;99.90;;;;;;5030846;28;19944;-52
2022/07/12 05:42:29;;;;;;;;;;;16.80;99.90;;;;;;5027288;28;19919;-51
2022/07/12 05:45:14;;;;;;;;;;;17.10;99.90;;;;;;5029491;28;19921;-59
2022/07/12 05:47:58;;;;;;;;;;;17.20;99.90;;;;;;5032267;28;20315;-55
2022/07/12 05:50:43;;;;;;;;;;;17.30;99.90;;;;;;5032274;28;19936;-52
2022/07/12 05:53:26;;;;;;;;;;;17.30;99.90;;;;;;5028704;28;19928;-56
2022/07/12 05:56:11;;;;;;;;;;;17.30;99.90;;;;;;5031095;28;19916;-56
2022/07/12 05:58:55;;;;;;;;;;;17.50;99.90;;;;;;5030884;28;19920;-55
2022/07/12 06:01:39;;;;;;;;;;;17.50;99.90;;;;;;5032016;28;19971;-52
2022/07/12 06:04:24;;;;;;;;;;;17.60;99.90;;;;;;5036783;28;19924;-53
2022/07/12 06:07:09;;;;;;;;;;;17.60;99.90;;;;;;5034069;28;19963;-53
2022/07/12 06:09:53;;;;;;;;;;;17.70;99.90;;;;;;5034740;28;19967;-53
2022/07/12 06:12:37;;;;;;;;;;;17.70;99.90;;;;;;5035135;28;19920;-54
2022/07/12 06:15:21;;;;;;;;;;;17.70;99.90;;;;;;5018750;28;19959;-58
2022/07/12 06:18:06;;;;;;;;;;;17.60;99.90;;;;;;5034283;28;19959;-53
2022/07/12 06:20:50;;;;;;;;;;;17.80;99.90;;;;;;5036492;28;19917;-53
2022/07/12 06:23:34;;;;;;;;;;;17.90;99.90;;;;;;5036385;28;19923;-49
2022/07/12 06:26:18;;;;;;;;;;;17.70;99.90;;;;;;5029690;28;19915;-55
2022/07/12 06:29:03;;;;;;;;;;;17.80;99.90;;;;;;5042682;28;20046;-50
2022/07/12 06:31:47;;;;;;;;;;;17.70;99.90;;;;;;5043849;28;19935;-52
2022/07/12 06:34:31;;;;;;;;;;;17.60;99.90;;;;;;5038764;28;19920;-52
2022/07/12 06:37:16;;;;;;;;;;;17.70;99.90;;;;;;5036934;28;19967;-53
2022/07/12 06:40:00;;;;;;;;;;;17.70;99.90;;;;;;5038338;28;19967;-56
2022/07/12 06:42:44;;;;;;;;;;;18.10;99.90;;;;;;5035484;28;19915;-54
2022/07/12 06:45:28;;;;;;;;;;;18.20;99.90;;;;;;5019651;28;20395;-54
2022/07/12 06:48:12;;;;;;;;;;;18.30;99.90;;;;;;5035025;28;19935;-53
2022/07/12 06:50:57;;;;;;;;;;;18.40;99.90;;;;;;5019851;28;20051;-53
2022/07/12 06:53:41;;;;;;;;;;;18.50;99.90;;;;;;5034722;28;20058;-53
2022/07/12 06:56:25;;;;;;;;;;;18.50;99.90;;;;;;5035271;28;19937;-55
2022/07/12 06:59:10;;;;;;;;;;;18.60;99.90;;;;;;5036205;28;19959;-53
2022/07/12 07:01:57;;;;;;;;;;;18.70;99.90;;;;;;5034833;28;20399;-52
2022/07/12 07:04:41;;;;;;;;;;;18.50;99.90;;;;;;5020520;28;20332;-52
2022/07/12 07:07:25;;;;;;;;;;;18.60;99.90;;;;;;5019873;28;19976;-55
2022/07/12 07:10:10;;;;;;;;;;;18.70;99.90;;;;;;5035357;28;19920;-56
2022/07/12 07:12:54;;;;;;;;;;;18.80;99.90;;;;;;5020140;28;20333;-55
2022/07/12 07:15:42;;;;;;;;;;;18.70;99.90;;;;;;5019892;28;19966;-53
2022/07/12 07:18:27;;;;;;;;;;;18.70;99.90;;;;;;5034527;28;19976;-53
2022/07/12 07:21:11;;;;;;;;;;;18.90;99.90;;;;;;5020113;28;19954;-56
2022/07/12 07:23:55;;;;;;;;;;;19.00;99.90;;;;;;5034839;28;20019;-54
2022/07/12 07:26:39;;;;;;;;;;;19.10;99.90;;;;;;5019254;28;20008;-52
2022/07/12 07:32:27;;;;;;;;;;;19.30;99.90;;;;;;5017658;28;20547;-52
2022/07/12 07:35:11;;;;;;;;;;;19.40;99.70;;;;;;5034304;28;20051;-55
2022/07/12 07:37:55;;;;;;;;;;;19.40;99.80;;;;;;5035980;28;19931;-55
2022/07/12 07:40:40;;;;;;;;;;;19.60;99.70;;;;;;5019953;28;19962;-56
2022/07/12 07:43:24;;;;;;;;;;;19.60;99.20;;;;;;5035956;28;20288;-53
2022/07/12 07:46:08;;;;;;;;;;;19.50;99.10;;;;;;5034558;28;19948;-51
2022/07/12 07:48:52;;;;;;;;;;;19.60;99.00;;;;;;5020240;28;19927;-52
2022/07/12 07:51:36;;;;;;;;;;;19.60;98.40;;;;;;5030909;28;19912;-55
2022/07/12 07:54:21;;;;;;;;;;;19.70;98.50;;;;;;5023254;28;20007;-55
2022/07/12 07:57:05;;;;;;;;;;;19.90;98.50;;;;;;5030367;28;19940;-53
2022/07/12 07:59:49;;;;;;;;;;;20.10;97.80;;;;;;5035058;28;19928;-49
2022/07/12 08:02:33;;;;;;;;;;;20.10;97.40;;;;;;5035166;28;19925;-56
2022/07/12 08:05:17;;;;;;;;;;;20.20;97.30;;;;;;5033544;28;19916;-50
2022/07/12 08:08:02;;;;;;;;;;;20.30;96.50;;;;;;5018741;28;19912;-55
2022/07/12 08:10:48;;;;;;;;;;;20.30;96.20;;;;;;5033649;28;19916;-53
2022/07/12 08:13:32;;;;;;;;;;;20.40;96.20;;;;;;5033775;28;19936;-55
2022/07/12 08:16:16;;;;;;;;;;;20.40;95.70;;;;;;5033628;28;19912;-56
2022/07/12 08:19:01;;;;;;;;;;;20.40;95.90;;;;;;5018895;28;20273;-51
2022/07/12 08:21:45;;;;;;;;;;;20.40;96.20;;;;;;5034536;28;19998;-52
2022/07/12 08:24:29;;;;;;;;;;;20.60;96.10;;;;;;5034211;28;19978;-54
2022/07/12 08:27:13;;;;;;;;;;;20.60;95.20;;;;;;5034647;28;20253;-57
2022/07/12 08:29:57;;;;;;;;;;;20.70;95.30;;;;;;5034647;28;19951;-53
2022/07/12 08:32:45;;;;;;;;;;;20.80;95.80;;;;;;5033772;28;19952;-55
2022/07/12 08:35:29;;;;;;;;;;;20.90;95.50;;;;;;5034470;28;20426;-55
2022/07/12 08:38:15;;;;;;;;;;;20.80;94.80;;;;;;5037732;28;19916;-57
2022/07/12 08:40:59;;;;;;;;;;;20.70;95.10;;;;;;5039770;28;19916;-58
2022/07/12 08:43:43;;;;;;;;;;;20.80;94.80;;;;;;5026329;28;20461;-58
2022/07/12 08:46:30;;;;;;;;;;;21.10;94.50;;;;;;5036731;28;20022;-51
2022/07/12 08:49:14;;;;;;;;;;;21.20;94.10;;;;;;5052079;28;20439;-49
2022/07/12 08:51:58;;;;;;;;;;;21.30;93.90;;;;;;5034482;28;19928;-53
2022/07/12 08:54:42;;;;;;;;;;;21.20;92.80;;;;;;5032295;28;20303;-53
2022/07/12 08:57:30;;;;;;;;;;;21.30;93.00;;;;;;5017864;28;19916;-54
2022/07/12 09:00:15;;;;;;;;;;;21.20;93.10;;;;;;5033323;28;20008;-53
2022/07/12 09:03:00;;;;;;;;;;;21.40;93.20;;;;;;5032903;28;20032;-52
2022/07/12 09:05:55;;;;;;;;;;;21.50;93.30;;;;;;5033476;28;20380;-52
2022/07/12 09:08:39;;;;;;;;;;;21.80;92.80;;;;;;5033544;28;20329;-49
2022/07/12 09:11:23;;;;;;;;;;;22.00;91.90;;;;;;5033447;28;20012;-51
2022/07/12 09:14:07;;;;;;;;;;;22.00;91.80;;;;;;5032815;28;20101;-54
2022/07/12 09:17:01;;;;;;;;;;;21.90;91.80;;;;;;5032840;28;20332;-50
2022/07/12 09:19:58;;;;;;;;;;;22.00;91.60;;;;;;5023578;28;20598;-57
2022/07/12 09:22:50;;;;;;;;;;;21.90;90.90;;;;;;5032161;28;20048;-54
2022/07/12 09:25:34;;;;;;;;;;;22.00;90.40;;;;;;5015496;28;19978;-56
2022/07/12 09:28:18;;;;;;;;;;;22.10;90.40;;;;;;5032512;28;19931;-57
2022/07/12 09:31:02;;;;;;;;;;;22.00;90.70;;;;;;5032363;28;19986;-53
2022/07/12 09:37:02;;;;;;;;;;;22.50;88.60;;;;;;5035181;28;20418;-57
2022/07/12 09:39:47;;;;;;;;;;;22.70;88.50;;;;;;5053028;28;19923;-57
2022/07/12 09:42:32;;;;;;;;;;;22.80;87.40;;;;;;5042773;28;19919;-55
2022/07/12 09:45:17;;;;;;;;;;;22.40;86.80;;;;;;5012848;28;20331;-56
2022/07/12 09:48:02;;;;;;;;;;;21.90;88.20;;;;;;5026013;28;19963;-56
2022/07/12 09:50:47;;;;;;;;;;;21.90;87.90;;;;;;5032126;28;19912;-56
2022/07/12 09:53:33;;;;;;;;;;;22.20;87.20;;;;;;5021641;28;20403;-51
2022/07/12 09:56:20;;;;;;;;;;;22.60;85.30;;;;;;5051846;28;19916;-52
2022/07/12 09:59:05;;;;;;;;;;;22.80;84.20;;;;;;5052076;28;19978;-56
2022/07/12 10:01:50;;;;;;;;;;;22.70;83.20;;;;;;5051083;28;19916;-56
2022/07/12 10:04:35;;;;;;;;;;;22.80;83.40;;;;;;5032812;28;20391;-55
2022/07/12 10:07:19;;;;;;;;;;;23.10;82.60;;;;;;5031729;28;20212;-58
2022/07/12 10:10:04;;;;;;;;;;;22.90;82.90;;;;;;5017326;28;19971;-54
2022/07/12 10:12:48;;;;;;;;;;;22.70;83.40;;;;;;5030952;28;19920;-53
2022/07/12 10:15:33;;;;;;;;;;;22.70;82.50;;;;;;5015427;28;19915;-56
2022/07/12 10:18:18;;;;;;;;;;;22.70;80.80;;;;;;5032696;28;19980;-53
2022/07/12 10:21:17;;;;;;;;;;;22.80;81.40;;;;;;5032646;28;19924;-56
2022/07/12 10:24:02;;;;;;;;;;;22.80;80.80;;;;;;5031767;28;19963;-54
2022/07/12 10:26:46;;;;;;;;;;;22.60;80.20;;;;;;5003953;28;19919;-55
2022/07/12 10:29:30;;;;;;;;;;;22.70;79.90;;;;;;5032095;28;19920;-55
2022/07/12 10:32:32;;;;;;;;;;;22.80;79.40;;;;;;5031610;28;19936;-56
2022/07/12 10:35:27;;;;;;;;;;;22.90;79.50;;;;;;5034156;28;19931;-56
2022/07/12 10:38:11;;;;;;;;;;;23.10;76.30;;;;;;5034660;28;19916;-53
2022/07/12 10:40:56;;;;;;;;;;;22.90;77.40;;;;;;5032328;28;19971;-57
2022/07/12 10:46:58;;;;;;;;;;;23.30;76.50;;;;;;5035463;28;19923;-52
2022/07/12 10:49:45;;;;;;;;;;;23.40;76.10;;;;;;5035466;28;19993;-55
2022/07/12 10:52:29;;;;;;;;;;;23.50;74.80;;;;;;5036631;28;19912;-55
2022/07/12 10:55:13;;;;;;;;;;;23.40;76.20;;;;;;5035097;28;19963;-54
2022/07/12 10:57:59;;;;;;;;;;;23.40;76.70;;;;;;5026054;28;19913;-58
2022/07/12 11:00:43;;;;;;;;;;;23.50;76.40;;;;;;5023664;28;20359;-58
2022/07/12 11:03:31;;;;;;;;;;;23.60;77.90;;;;;;5035099;28;19967;-58
2022/07/12 11:06:19;;;;;;;;;;;23.90;77.20;;;;;;5028911;28;19920;-55
2022/07/12 11:09:07;;;;;;;;;;;24.10;75.10;;;;;;5034139;28;20006;-57
2022/07/12 11:11:52;;;;;;;;;;;24.10;74.10;;;;;;5031062;28;20034;-50
2022/07/12 11:14:36;;;;;;;;;;;24.00;74.40;;;;;;5026074;28;20383;-53
2022/07/12 11:17:28;;;;;;;;;;;23.80;75.10;;;;;;5031673;28;19963;-53
2022/07/12 11:20:13;;;;;;;;;;;23.70;74.30;;;;;;5039594;28;19959;-55
2022/07/12 11:22:57;;;;;;;;;;;23.60;73.70;;;;;;5032144;28;19916;-56
2022/07/12 11:25:41;;;;;;;;;;;23.40;74.10;;;;;;5028373;28;19963;-52
2022/07/12 11:28:27;;;;;;;;;;;23.70;74.80;;;;;;5031918;28;19931;-54
2022/07/12 11:31:16;;;;;;;;;;;24.00;74.00;;;;;;5034428;28;19916;-55
2022/07/12 11:34:00;;;;;;;;;;;24.10;73.50;;;;;;5032596;28;19912;-54
2022/07/12 11:36:45;;;;;;;;;;;24.30;73.00;;;;;;5025653;28;19955;-53
2022/07/12 11:39:33;;;;;;;;;;;24.20;71.10;;;;;;5008279;28;19970;-49
2022/07/12 11:42:18;;;;;;;;;;;24.00;71.90;;;;;;5031946;28;19996;-56
2022/07/12 11:45:02;;;;;;;;;;;24.00;70.90;;;;;;5031129;28;19964;-52
2022/07/12 11:47:46;;;;;;;;;;;24.00;71.90;;;;;;5032778;28;19956;-55
2022/07/12 11:50:31;;;;;;;;;;;24.00;71.70;;;;;;5013085;28;19976;-56
2022/07/12 11:53:17;;;;;;;;;;;23.90;72.00;;;;;;5032867;28;19987;-57
2022/07/12 11:56:03;;;;;;;;;;;24.20;72.40;;;;;;5038434;28;19976;-56
2022/07/12 11:58:54;;;;;;;;;;;24.30;71.50;;;;;;5034603;28;19931;-52
2022/07/12 12:01:38;;;;;;;;;;;24.40;71.30;;;;;;5034794;28;20167;-56
2022/07/12 12:04:23;;;;;;;;;;;24.60;71.50;;;;;;5032824;28;20276;-50
2022/07/12 12:07:07;;;;;;;;;;;24.60;70.10;;;;;;5033959;28;20008;-53
2022/07/12 12:10:10;;;;;;;;;;;24.80;70.10;;;;;;5034644;28;19963;-54
2022/07/12 12:12:56;;;;;;;;;;;24.90;70.10;;;;;;5018555;28;19913;-53
2022/07/12 12:15:40;;;;;;;;;;;25.00;70.50;;;;;;5026392;28;19956;-55
2022/07/12 12:18:32;;;;;;;;;;;25.20;69.60;;;;;;5026363;28;20323;-52
2022/07/12 12:21:25;;;;;;;;;;;24.90;67.30;;;;;;5030480;28;19916;-50
2022/07/12 12:24:10;;;;;;;;;;;24.90;67.90;;;;;;5030069;28;19963;-52
2022/07/12 12:26:54;;;;;;;;;;;24.90;68.90;;;;;;5031007;28;19936;-52
2022/07/12 12:29:41;;;;;;;;;;;24.70;69.40;;;;;;5030886;28;19916;-58
2022/07/12 12:32:25;;;;;;;;;;;24.70;69.60;;;;;;5033177;28;19920;-56
2022/07/12 12:35:11;;;;;;;;;;;25.00;69.10;;;;;;5031406;28;19916;-50
2022/07/12 12:37:56;;;;;;;;;;;24.90;68.70;;;;;;5032750;28;20314;-57
2022/07/12 12:40:49;;;;;;;;;;;25.10;67.80;;;;;;5031600;28;20002;-55
2022/07/12 12:43:33;;;;;;;;;;;25.30;66.30;;;;;;5031104;28;19936;-54
2022/07/12 12:46:17;;;;;;;;;;;25.30;66.80;;;;;;5032658;28;19916;-57
2022/07/12 12:49:01;;;;;;;;;;;25.20;66.70;;;;;;5033576;28;20024;-56
2022/07/12 12:51:56;;;;;;;;;;;25.30;67.10;;;;;;5032435;28;19920;-53
2022/07/12 12:54:40;;;;;;;;;;;25.50;66.60;;;;;;5032267;28;19955;-54
2022/07/12 12:57:25;;;;;;;;;;;25.80;66.20;;;;;;5031903;28;20328;-54
2022/07/12 13:00:10;;;;;;;;;;;25.60;65.00;;;;;;5032516;28;19963;-52
2022/07/12 13:02:55;;;;;;;;;;;25.50;64.80;;;;;;5032811;28;19920;-57
2022/07/12 13:05:39;;;;;;;;;;;25.70;65.30;;;;;;5032940;28;20010;-56
2022/07/12 13:08:23;;;;;;;;;;;25.90;64.70;;;;;;5031940;28;19920;-56
2022/07/12 13:11:22;;;;;;;;;;;26.10;64.60;;;;;;5031920;28;19978;-56
2022/07/12 13:14:06;;;;;;;;;;;26.00;65.10;;;;;;5032300;28;20383;-53
2022/07/12 13:16:50;;;;;;;;;;;26.30;64.40;;;;;;5030610;28;19935;-58
2022/07/12 13:19:34;;;;;;;;;;;26.20;64.80;;;;;;5017331;28;19920;-55
2022/07/12 13:22:19;;;;;;;;;;;26.50;64.60;;;;;;5032297;28;19923;-56
2022/07/12 13:25:03;;;;;;;;;;;26.70;63.80;;;;;;5032107;28;19998;-55
2022/07/12 13:27:47;;;;;;;;;;;26.80;61.50;;;;;;5031719;28;19964;-56
2022/07/12 13:30:31;;;;;;;;;;;26.50;62.20;;;;;;5032013;28;19954;-55
2022/07/12 13:33:16;;;;;;;;;;;26.70;62.60;;;;;;5030616;28;19948;-57
2022/07/12 13:36:00;;;;;;;;;;;26.60;62.00;;;;;;5031253;28;19924;-55
2022/07/12 13:38:44;;;;;;;;;;;26.50;61.50;;;;;;5016298;28;20447;-56
2022/07/12 13:41:30;;;;;;;;;;;26.60;61.80;;;;;;5017284;28;19921;-57
2022/07/12 13:44:15;;;;;;;;;;;26.90;61.80;;;;;;5030977;28;19927;-61
2022/07/12 13:46:59;;;;;;;;;;;27.30;60.90;;;;;;5033060;28;19932;-58
2022/07/12 13:49:43;;;;;;;;;;;27.30;59.90;;;;;;5031486;28;20356;-56
2022/07/12 13:52:28;;;;;;;;;;;27.30;60.40;;;;;;5031245;28;19979;-57
2022/07/12 13:55:15;;;;;;;;;;;27.20;61.00;;;;;;5030406;28;20287;-54
2022/07/12 13:57:59;;;;;;;;;;;27.30;61.00;;;;;;5031286;28;19916;-54
2022/07/12 14:00:44;;;;;;;;;;;27.30;60.30;;;;;;5028381;28;19975;-52
2022/07/12 14:03:28;;;;;;;;;;;27.50;61.10;;;;;;5029128;28;19916;-56
2022/07/12 14:06:12;;;;;;;;;;;27.70;60.70;;;;;;5030227;28;19927;-54
2022/07/12 14:08:56;;;;;;;;;;;28.10;60.20;;;;;;5029700;28;19982;-55
2022/07/12 14:11:41;;;;;;;;;;;28.10;58.80;;;;;;5031072;28;20430;-58
2022/07/12 14:17:29;;;;;;;;;;;27.80;59.00;;;;;;5029702;28;19924;-57
2022/07/12 14:20:16;;;;;;;;;;;27.90;58.70;;;;;;5030513;28;20022;-58
2022/07/12 14:23:01;;;;;;;;;;;28.00;58.60;;;;;;5035085;28;19916;-55
2022/07/12 14:25:45;;;;;;;;;;;28.10;58.50;;;;;;5035562;28;19924;-54
2022/07/12 14:28:29;;;;;;;;;;;28.50;58.30;;;;;;5037737;28;19963;-53
2022/07/12 14:31:13;;;;;;;;;;;28.80;57.70;;;;;;5038414;28;19923;-55
2022/07/12 14:33:58;;;;;;;;;;;28.80;57.80;;;;;;5037961;28;19919;-56
2022/07/12 14:36:42;;;;;;;;;;;28.30;58.10;;;;;;5021483;28;20338;-57
2022/07/12 14:39:27;;;;;;;;;;;28.40;58.20;;;;;;5037666;28;19986;-54
2022/07/12 14:42:11;;;;;;;;;;;28.80;58.50;;;;;;5021045;28;19915;-56
2022/07/12 14:44:55;;;;;;;;;;;29.10;57.20;;;;;;5034469;28;19924;-56
2022/07/12 14:47:40;;;;;;;;;;;29.30;58.10;;;;;;5033797;28;20292;-56
2022/07/12 14:50:24;;;;;;;;;;;29.80;57.10;;;;;;5019636;28;20005;-56
2022/07/12 14:53:08;;;;;;;;;;;29.50;55.40;;;;;;5033657;28;19920;-56
2022/07/12 14:55:52;;;;;;;;;;;29.30;55.80;;;;;;5034065;28;19928;-56
2022/07/12 14:58:37;;;;;;;;;;;29.40;56.20;;;;;;5034467;28;19920;-57
2022/07/12 15:01:21;;;;;;;;;;;29.50;56.20;;;;;;5032879;28;19963;-56
2022/07/12 15:04:05;;;;;;;;;;;29.80;55.50;;;;;;5034529;28;19963;-55
2022/07/12 15:06:49;;;;;;;;;;;29.60;55.90;;;;;;5035108;28;19916;-58
2022/07/12 15:09:34;;;;;;;;;;;29.90;56.30;;;;;;5038464;28;19924;-56
2022/07/12 15:12:18;;;;;;;;;;;29.70;56.00;;;;;;5035512;28;19985;-56
2022/07/12 15:15:02;;;;;;;;;;;29.20;56.00;;;;;;5015976;28;19921;-54
2022/07/12 15:17:46;;;;;;;;;;;29.20;56.30;;;;;;5026668;28;19916;-57
2022/07/12 15:20:30;;;;;;;;;;;29.40;56.30;;;;;;5035208;28;19958;-57
2022/07/12 15:23:14;;;;;;;;;;;29.60;56.40;;;;;;5034301;28;19936;-54
2022/07/12 15:25:59;;;;;;;;;;;29.50;56.10;;;;;;5034696;28;20336;-57
2022/07/12 15:28:51;;;;;;;;;;;29.50;56.60;;;;;;5034336;28;19915;-56
2022/07/12 15:31:35;;;;;;;;;;;29.30;56.60;;;;;;5034375;28;19912;-54
2022/07/12 15:34:19;;;;;;;;;;;29.50;56.60;;;;;;5033525;28;20430;-57
2022/07/12 15:37:04;;;;;;;;;;;29.70;56.20;;;;;;5033532;28;19924;-56
2022/07/12 15:39:48;;;;;;;;;;;29.90;56.10;;;;;;5034958;28;19924;-55
2022/07/12 15:42:32;;;;;;;;;;;29.90;55.60;;;;;;5034685;28;19919;-56
2022/07/12 15:45:17;;;;;;;;;;;29.70;55.90;;;;;;5014555;28;19940;-55
2022/07/12 15:48:01;;;;;;;;;;;29.70;55.90;;;;;;5025575;28;19963;-56
2022/07/12 15:50:45;;;;;;;;;;;29.80;56.20;;;;;;5034045;28;19916;-57
2022/07/12 15:53:29;;;;;;;;;;;30.20;55.30;;;;;;5032729;28;19928;-56
2022/07/12 15:56:13;;;;;;;;;;;30.10;55.30;;;;;;5033608;28;20045;-57
2022/07/12 15:58:57;;;;;;;;;;;30.30;54.90;;;;;;5032370;28;19971;-55
2022/07/12 16:01:42;;;;;;;;;;;30.30;54.80;;;;;;5035283;28;19929;-55
2022/07/12 16:04:26;;;;;;;;;;;30.20;54.30;;;;;;5034458;28;20410;-57
2022/07/12 16:07:12;;;;;;;;;;;30.40;54.60;;;;;;5038786;28;19916;-58
2022/07/12 16:09:56;;;;;;;;;;;30.60;54.40;;;;;;5020913;28;19912;-55
2022/07/12 16:12:40;;;;;;;;;;;31.10;53.40;;;;;;5034267;28;19936;-57